sensor_id;sensor_type;location;lat;lon;timestamp;P1;durP1;ratioP1;P2;durP2;ratioP2
28266;SDS011;15525;45.568;5.448;2022-11-20T00:00:05;20.63;;;9.73;;
28266;SDS011;15525;45.568;5.448;2022-11-20T00:02:31;19.88;;;9.82;;
28266;SDS011;15525;45.568;5.448;2022-11-20T00:04:57;20.08;;;9.93;;
28266;SDS011;15525;45.568;5.448;2022-11-20T00:07:22;18.63;;;10.05;;
28266;SDS011;15525;45.568;5.448;2022-11-20T00:09:48;17.50;;;9.65;;
28266;SDS011;15525;45.568;5.448;2022-11-20T00:12:13;16.10;;;9.23;;
28266;SDS011;15525;45.568;5.448;2022-11-20T00:14:39;15.48;;;9.00;;
28266;SDS011;15525;45.568;5.448;2022-11-20T00:17:06;23.70;;;10.23;;
28266;SDS011;15525;45.568;5.448;2022-11-20T00:19:31;17.50;;;9.10;;
28266;SDS011;15525;45.568;5.448;2022-11-20T00:21:57;14.68;;;8.82;;
28266;SDS011;15525;45.568;5.448;2022-11-20T00:24:22;18.90;;;8.88;;
28266;SDS011;15525;45.568;5.448;2022-11-20T00:26:47;19.77;;;9.05;;
28266;SDS011;15525;45.568;5.448;2022-11-20T00:29:13;15.52;;;8.95;;
28266;SDS011;15525;45.568;5.448;2022-11-20T00:31:38;18.70;;;9.38;;
28266;SDS011;15525;45.568;5.448;2022-11-20T00:34:04;18.50;;;9.60;;
28266;SDS011;15525;45.568;5.448;2022-11-20T00:36:31;17.27;;;8.57;;
28266;SDS011;15525;45.568;5.448;2022-11-20T00:38:59;13.73;;;7.82;;
28266;SDS011;15525;45.568;5.448;2022-11-20T00:41:25;16.13;;;8.23;;
28266;SDS011;15525;45.568;5.448;2022-11-20T00:43:52;15.07;;;8.25;;
28266;SDS011;15525;45.568;5.448;2022-11-20T00:46:20;15.57;;;7.53;;
28266;SDS011;15525;45.568;5.448;2022-11-20T00:48:49;16.80;;;7.80;;
28266;SDS011;15525;45.568;5.448;2022-11-20T00:51:16;16.15;;;7.85;;
28266;SDS011;15525;45.568;5.448;2022-11-20T00:53:43;14.98;;;8.10;;
28266;SDS011;15525;45.568;5.448;2022-11-20T00:56:11;15.98;;;8.00;;
28266;SDS011;15525;45.568;5.448;2022-11-20T00:58:42;20.13;;;7.88;;
28266;SDS011;15525;45.568;5.448;2022-11-20T01:01:12;13.45;;;7.53;;
28266;SDS011;15525;45.568;5.448;2022-11-20T01:03:40;17.05;;;8.02;;
28266;SDS011;15525;45.568;5.448;2022-11-20T01:06:12;14.27;;;7.38;;
28266;SDS011;15525;45.568;5.448;2022-11-20T01:08:39;14.73;;;7.38;;
28266;SDS011;15525;45.568;5.448;2022-11-20T01:11:06;14.98;;;7.07;;
28266;SDS011;15525;45.568;5.448;2022-11-20T01:13:34;11.30;;;7.28;;
28266;SDS011;15525;45.568;5.448;2022-11-20T01:16:10;14.30;;;6.78;;
28266;SDS011;15525;45.568;5.448;2022-11-20T01:18:38;11.23;;;6.60;;
28266;SDS011;15525;45.568;5.448;2022-11-20T01:21:05;13.85;;;7.05;;
28266;SDS011;15525;45.568;5.448;2022-11-20T01:23:36;11.45;;;6.72;;
28266;SDS011;15525;45.568;5.448;2022-11-20T01:26:03;13.55;;;6.90;;
28266;SDS011;15525;45.568;5.448;2022-11-20T01:28:31;12.73;;;7.40;;
28266;SDS011;15525;45.568;5.448;2022-11-20T01:30:57;16.65;;;6.80;;
28266;SDS011;15525;45.568;5.448;2022-11-20T01:33:23;12.98;;;6.55;;
28266;SDS011;15525;45.568;5.448;2022-11-20T01:35:49;15.80;;;6.78;;
28266;SDS011;15525;45.568;5.448;2022-11-20T01:38:15;13.32;;;7.07;;
28266;SDS011;15525;45.568;5.448;2022-11-20T01:40:42;13.73;;;6.65;;
28266;SDS011;15525;45.568;5.448;2022-11-20T01:43:17;11.95;;;6.88;;
28266;SDS011;15525;45.568;5.448;2022-11-20T01:48:25;16.92;;;6.70;;
28266;SDS011;15525;45.568;5.448;2022-11-20T01:50:55;14.30;;;6.50;;
28266;SDS011;15525;45.568;5.448;2022-11-20T01:53:24;12.98;;;7.50;;
28266;SDS011;15525;45.568;5.448;2022-11-20T01:55:54;15.02;;;6.68;;
28266;SDS011;15525;45.568;5.448;2022-11-20T01:58:26;12.40;;;7.10;;
28266;SDS011;15525;45.568;5.448;2022-11-20T02:00:55;13.00;;;6.57;;
28266;SDS011;15525;45.568;5.448;2022-11-20T02:03:20;14.23;;;7.05;;
28266;SDS011;15525;45.568;5.448;2022-11-20T02:05:49;13.30;;;7.78;;
28266;SDS011;15525;45.568;5.448;2022-11-20T02:10:46;15.82;;;8.25;;
28266;SDS011;15525;45.568;5.448;2022-11-20T02:13:12;15.02;;;7.57;;
28266;SDS011;15525;45.568;5.448;2022-11-20T02:15:56;15.02;;;8.35;;
28266;SDS011;15525;45.568;5.448;2022-11-20T02:18:21;16.05;;;8.30;;
28266;SDS011;15525;45.568;5.448;2022-11-20T02:20:48;14.23;;;8.30;;
28266;SDS011;15525;45.568;5.448;2022-11-20T02:26:03;13.48;;;7.20;;
28266;SDS011;15525;45.568;5.448;2022-11-20T02:28:32;13.30;;;7.70;;
28266;SDS011;15525;45.568;5.448;2022-11-20T02:30:58;14.93;;;8.23;;
28266;SDS011;15525;45.568;5.448;2022-11-20T02:33:23;16.75;;;9.20;;
28266;SDS011;15525;45.568;5.448;2022-11-20T02:35:49;15.55;;;8.80;;
28266;SDS011;15525;45.568;5.448;2022-11-20T02:38:14;18.23;;;8.82;;
28266;SDS011;15525;45.568;5.448;2022-11-20T02:40:40;15.57;;;8.48;;
28266;SDS011;15525;45.568;5.448;2022-11-20T02:43:06;15.57;;;8.23;;
28266;SDS011;15525;45.568;5.448;2022-11-20T02:45:32;13.98;;;7.97;;
28266;SDS011;15525;45.568;5.448;2022-11-20T02:47:57;15.55;;;7.97;;
28266;SDS011;15525;45.568;5.448;2022-11-20T02:50:23;15.63;;;8.32;;
28266;SDS011;15525;45.568;5.448;2022-11-20T02:52:48;19.73;;;8.65;;
28266;SDS011;15525;45.568;5.448;2022-11-20T02:55:13;16.83;;;7.90;;
28266;SDS011;15525;45.568;5.448;2022-11-20T02:57:39;16.00;;;7.40;;
28266;SDS011;15525;45.568;5.448;2022-11-20T03:00:05;15.90;;;8.13;;
28266;SDS011;15525;45.568;5.448;2022-11-20T03:02:31;18.58;;;8.35;;
28266;SDS011;15525;45.568;5.448;2022-11-20T03:04:57;14.73;;;7.90;;
28266;SDS011;15525;45.568;5.448;2022-11-20T03:07:23;13.65;;;7.82;;
28266;SDS011;15525;45.568;5.448;2022-11-20T03:09:49;14.35;;;8.02;;
28266;SDS011;15525;45.568;5.448;2022-11-20T03:12:14;15.07;;;7.97;;
28266;SDS011;15525;45.568;5.448;2022-11-20T03:14:39;17.08;;;8.23;;
28266;SDS011;15525;45.568;5.448;2022-11-20T03:17:05;16.52;;;8.40;;
28266;SDS011;15525;45.568;5.448;2022-11-20T03:19:30;19.40;;;8.18;;
28266;SDS011;15525;45.568;5.448;2022-11-20T03:21:56;15.38;;;8.30;;
28266;SDS011;15525;45.568;5.448;2022-11-20T03:24:21;16.05;;;8.45;;
28266;SDS011;15525;45.568;5.448;2022-11-20T03:26:47;17.17;;;8.35;;
28266;SDS011;15525;45.568;5.448;2022-11-20T03:29:12;17.42;;;8.90;;
28266;SDS011;15525;45.568;5.448;2022-11-20T03:31:38;17.15;;;8.68;;
28266;SDS011;15525;45.568;5.448;2022-11-20T03:34:05;15.60;;;8.07;;
28266;SDS011;15525;45.568;5.448;2022-11-20T03:36:32;14.60;;;8.05;;
28266;SDS011;15525;45.568;5.448;2022-11-20T03:38:58;13.05;;;7.72;;
28266;SDS011;15525;45.568;5.448;2022-11-20T03:41:24;15.35;;;7.80;;
28266;SDS011;15525;45.568;5.448;2022-11-20T03:43:55;14.40;;;7.15;;
28266;SDS011;15525;45.568;5.448;2022-11-20T03:46:22;10.50;;;7.05;;
28266;SDS011;15525;45.568;5.448;2022-11-20T03:48:49;9.75;;;6.72;;
28266;SDS011;15525;45.568;5.448;2022-11-20T03:51:15;11.52;;;6.80;;
28266;SDS011;15525;45.568;5.448;2022-11-20T03:53:43;12.50;;;6.50;;
28266;SDS011;15525;45.568;5.448;2022-11-20T03:56:10;14.32;;;7.43;;
28266;SDS011;15525;45.568;5.448;2022-11-20T03:58:37;14.32;;;7.40;;
28266;SDS011;15525;45.568;5.448;2022-11-20T04:01:07;14.13;;;7.35;;
28266;SDS011;15525;45.568;5.448;2022-11-20T04:03:35;17.23;;;7.60;;
28266;SDS011;15525;45.568;5.448;2022-11-20T04:06:02;11.68;;;7.15;;
28266;SDS011;15525;45.568;5.448;2022-11-20T04:08:30;15.90;;;7.65;;
28266;SDS011;15525;45.568;5.448;2022-11-20T04:10:56;14.85;;;8.05;;
28266;SDS011;15525;45.568;5.448;2022-11-20T04:13:21;14.43;;;7.90;;
28266;SDS011;15525;45.568;5.448;2022-11-20T04:15:46;18.33;;;8.40;;
28266;SDS011;15525;45.568;5.448;2022-11-20T04:18:12;17.63;;;8.68;;
28266;SDS011;15525;45.568;5.448;2022-11-20T04:20:37;18.17;;;8.50;;
28266;SDS011;15525;45.568;5.448;2022-11-20T04:23:02;16.15;;;8.45;;
28266;SDS011;15525;45.568;5.448;2022-11-20T04:25:28;16.27;;;8.27;;
28266;SDS011;15525;45.568;5.448;2022-11-20T04:27:54;17.95;;;9.00;;
28266;SDS011;15525;45.568;5.448;2022-11-20T04:30:19;13.75;;;7.82;;
28266;SDS011;15525;45.568;5.448;2022-11-20T04:32:45;21.55;;;8.90;;
28266;SDS011;15525;45.568;5.448;2022-11-20T04:35:10;18.58;;;7.85;;
28266;SDS011;15525;45.568;5.448;2022-11-20T04:37:35;14.82;;;8.10;;
28266;SDS011;15525;45.568;5.448;2022-11-20T04:40:01;15.15;;;8.57;;
28266;SDS011;15525;45.568;5.448;2022-11-20T04:42:26;16.90;;;8.77;;
28266;SDS011;15525;45.568;5.448;2022-11-20T04:44:54;17.50;;;8.15;;
28266;SDS011;15525;45.568;5.448;2022-11-20T04:47:20;16.00;;;8.35;;
28266;SDS011;15525;45.568;5.448;2022-11-20T04:49:46;14.63;;;8.18;;
28266;SDS011;15525;45.568;5.448;2022-11-20T04:52:12;18.98;;;8.45;;
28266;SDS011;15525;45.568;5.448;2022-11-20T04:54:37;15.25;;;7.90;;
28266;SDS011;15525;45.568;5.448;2022-11-20T04:57:02;15.68;;;7.53;;
28266;SDS011;15525;45.568;5.448;2022-11-20T04:59:28;14.05;;;7.05;;
28266;SDS011;15525;45.568;5.448;2022-11-20T05:01:53;16.23;;;7.70;;
28266;SDS011;15525;45.568;5.448;2022-11-20T05:04:19;14.63;;;8.10;;
28266;SDS011;15525;45.568;5.448;2022-11-20T05:06:44;17.67;;;8.20;;
28266;SDS011;15525;45.568;5.448;2022-11-20T05:09:10;16.98;;;8.02;;
28266;SDS011;15525;45.568;5.448;2022-11-20T05:11:36;15.20;;;8.38;;
28266;SDS011;15525;45.568;5.448;2022-11-20T05:14:02;16.15;;;8.10;;
28266;SDS011;15525;45.568;5.448;2022-11-20T05:16:27;15.10;;;7.68;;
28266;SDS011;15525;45.568;5.448;2022-11-20T05:18:53;14.80;;;7.70;;
28266;SDS011;15525;45.568;5.448;2022-11-20T05:21:19;17.80;;;7.80;;
28266;SDS011;15525;45.568;5.448;2022-11-20T05:23:45;15.27;;;8.45;;
28266;SDS011;15525;45.568;5.448;2022-11-20T05:26:16;13.95;;;7.82;;
28266;SDS011;15525;45.568;5.448;2022-11-20T05:28:43;16.42;;;8.02;;
28266;SDS011;15525;45.568;5.448;2022-11-20T05:31:10;15.50;;;7.75;;
28266;SDS011;15525;45.568;5.448;2022-11-20T05:33:39;13.32;;;7.70;;
28266;SDS011;15525;45.568;5.448;2022-11-20T05:36:06;12.38;;;7.53;;
28266;SDS011;15525;45.568;5.448;2022-11-20T05:38:32;14.48;;;7.72;;
28266;SDS011;15525;45.568;5.448;2022-11-20T05:41:07;12.88;;;7.60;;
28266;SDS011;15525;45.568;5.448;2022-11-20T05:43:35;16.08;;;9.18;;
28266;SDS011;15525;45.568;5.448;2022-11-20T05:46:02;16.92;;;8.73;;
28266;SDS011;15525;45.568;5.448;2022-11-20T05:48:28;15.82;;;8.05;;
28266;SDS011;15525;45.568;5.448;2022-11-20T05:50:54;14.55;;;8.07;;
28266;SDS011;15525;45.568;5.448;2022-11-20T05:53:21;15.68;;;8.68;;
28266;SDS011;15525;45.568;5.448;2022-11-20T05:55:46;18.90;;;8.05;;
28266;SDS011;15525;45.568;5.448;2022-11-20T05:58:20;14.40;;;8.32;;
28266;SDS011;15525;45.568;5.448;2022-11-20T06:00:45;13.52;;;8.02;;
28266;SDS011;15525;45.568;5.448;2022-11-20T06:03:11;16.08;;;8.23;;
28266;SDS011;15525;45.568;5.448;2022-11-20T06:05:36;16.63;;;8.77;;
28266;SDS011;15525;45.568;5.448;2022-11-20T06:08:02;15.38;;;9.13;;
28266;SDS011;15525;45.568;5.448;2022-11-20T06:10:27;15.43;;;7.80;;
28266;SDS011;15525;45.568;5.448;2022-11-20T06:12:52;17.65;;;9.23;;
28266;SDS011;15525;45.568;5.448;2022-11-20T06:15:18;17.85;;;8.77;;
28266;SDS011;15525;45.568;5.448;2022-11-20T06:17:43;18.73;;;9.20;;
28266;SDS011;15525;45.568;5.448;2022-11-20T06:20:09;19.35;;;9.90;;
28266;SDS011;15525;45.568;5.448;2022-11-20T06:22:35;16.92;;;9.02;;
28266;SDS011;15525;45.568;5.448;2022-11-20T06:25:00;20.85;;;9.43;;
28266;SDS011;15525;45.568;5.448;2022-11-20T06:27:25;16.20;;;9.10;;
28266;SDS011;15525;45.568;5.448;2022-11-20T06:29:52;19.05;;;10.13;;
28266;SDS011;15525;45.568;5.448;2022-11-20T06:32:17;19.73;;;10.25;;
28266;SDS011;15525;45.568;5.448;2022-11-20T06:34:42;18.23;;;10.07;;
28266;SDS011;15525;45.568;5.448;2022-11-20T06:37:08;15.52;;;9.05;;
28266;SDS011;15525;45.568;5.448;2022-11-20T06:39:34;17.77;;;8.90;;
28266;SDS011;15525;45.568;5.448;2022-11-20T06:41:59;16.70;;;9.10;;
28266;SDS011;15525;45.568;5.448;2022-11-20T06:44:25;22.45;;;10.35;;
28266;SDS011;15525;45.568;5.448;2022-11-20T06:46:50;20.80;;;10.40;;
28266;SDS011;15525;45.568;5.448;2022-11-20T06:49:15;22.17;;;11.63;;
28266;SDS011;15525;45.568;5.448;2022-11-20T06:51:41;25.02;;;11.07;;
28266;SDS011;15525;45.568;5.448;2022-11-20T06:54:06;20.17;;;11.18;;
28266;SDS011;15525;45.568;5.448;2022-11-20T06:56:32;21.70;;;11.60;;
28266;SDS011;15525;45.568;5.448;2022-11-20T06:58:57;21.15;;;11.00;;
28266;SDS011;15525;45.568;5.448;2022-11-20T07:01:26;21.75;;;11.48;;
28266;SDS011;15525;45.568;5.448;2022-11-20T07:03:51;23.20;;;11.38;;
28266;SDS011;15525;45.568;5.448;2022-11-20T07:06:16;21.15;;;11.07;;
28266;SDS011;15525;45.568;5.448;2022-11-20T07:08:42;22.95;;;10.88;;
28266;SDS011;15525;45.568;5.448;2022-11-20T07:11:07;22.30;;;11.88;;
28266;SDS011;15525;45.568;5.448;2022-11-20T07:13:33;21.73;;;11.25;;
28266;SDS011;15525;45.568;5.448;2022-11-20T07:16:03;19.48;;;10.60;;
28266;SDS011;15525;45.568;5.448;2022-11-20T07:18:30;21.90;;;11.13;;
28266;SDS011;15525;45.568;5.448;2022-11-20T07:20:59;24.67;;;12.20;;
28266;SDS011;15525;45.568;5.448;2022-11-20T07:23:25;18.90;;;10.68;;
28266;SDS011;15525;45.568;5.448;2022-11-20T07:25:51;19.95;;;10.40;;
28266;SDS011;15525;45.568;5.448;2022-11-20T07:28:16;21.08;;;10.80;;
28266;SDS011;15525;45.568;5.448;2022-11-20T07:30:42;20.58;;;10.65;;
28266;SDS011;15525;45.568;5.448;2022-11-20T07:33:07;21.17;;;10.85;;
28266;SDS011;15525;45.568;5.448;2022-11-20T07:35:32;17.70;;;10.15;;
28266;SDS011;15525;45.568;5.448;2022-11-20T07:37:58;18.75;;;10.80;;
28266;SDS011;15525;45.568;5.448;2022-11-20T07:40:23;20.85;;;11.05;;
28266;SDS011;15525;45.568;5.448;2022-11-20T07:42:49;21.40;;;10.32;;
28266;SDS011;15525;45.568;5.448;2022-11-20T07:45:16;19.90;;;11.38;;
28266;SDS011;15525;45.568;5.448;2022-11-20T07:47:42;20.83;;;11.45;;
28266;SDS011;15525;45.568;5.448;2022-11-20T07:50:08;21.02;;;10.98;;
28266;SDS011;15525;45.568;5.448;2022-11-20T07:52:33;20.25;;;11.55;;
28266;SDS011;15525;45.568;5.448;2022-11-20T07:54:58;20.77;;;11.32;;
28266;SDS011;15525;45.568;5.448;2022-11-20T07:57:24;19.52;;;11.13;;
28266;SDS011;15525;45.568;5.448;2022-11-20T07:59:49;22.90;;;12.27;;
28266;SDS011;15525;45.568;5.448;2022-11-20T08:02:15;21.50;;;11.73;;
28266;SDS011;15525;45.568;5.448;2022-11-20T08:04:40;20.73;;;11.30;;
28266;SDS011;15525;45.568;5.448;2022-11-20T08:07:05;19.17;;;10.90;;
28266;SDS011;15525;45.568;5.448;2022-11-20T08:09:31;17.63;;;10.02;;
28266;SDS011;15525;45.568;5.448;2022-11-20T08:11:57;14.90;;;8.13;;
28266;SDS011;15525;45.568;5.448;2022-11-20T08:14:41;16.88;;;7.85;;
28266;SDS011;15525;45.568;5.448;2022-11-20T08:17:06;15.02;;;7.57;;
28266;SDS011;15525;45.568;5.448;2022-11-20T08:19:32;14.02;;;6.90;;
28266;SDS011;15525;45.568;5.448;2022-11-20T08:21:57;11.45;;;6.50;;
28266;SDS011;15525;45.568;5.448;2022-11-20T08:24:23;11.52;;;6.65;;
28266;SDS011;15525;45.568;5.448;2022-11-20T08:26:49;10.80;;;5.95;;
28266;SDS011;15525;45.568;5.448;2022-11-20T08:29:15;9.63;;;5.90;;
28266;SDS011;15525;45.568;5.448;2022-11-20T08:31:40;11.77;;;5.78;;
28266;SDS011;15525;45.568;5.448;2022-11-20T08:34:06;9.77;;;6.03;;
28266;SDS011;15525;45.568;5.448;2022-11-20T08:36:32;10.32;;;5.57;;
28266;SDS011;15525;45.568;5.448;2022-11-20T08:38:59;12.35;;;5.55;;
28266;SDS011;15525;45.568;5.448;2022-11-20T08:41:25;10.52;;;6.80;;
28266;SDS011;15525;45.568;5.448;2022-11-20T08:43:57;10.23;;;6.00;;
28266;SDS011;15525;45.568;5.448;2022-11-20T08:46:24;8.18;;;5.63;;
28266;SDS011;15525;45.568;5.448;2022-11-20T08:48:51;10.70;;;6.00;;
28266;SDS011;15525;45.568;5.448;2022-11-20T08:51:17;11.75;;;5.97;;
28266;SDS011;15525;45.568;5.448;2022-11-20T08:53:43;9.63;;;5.75;;
28266;SDS011;15525;45.568;5.448;2022-11-20T08:56:09;11.07;;;5.75;;
28266;SDS011;15525;45.568;5.448;2022-11-20T08:58:35;13.70;;;6.13;;
28266;SDS011;15525;45.568;5.448;2022-11-20T09:01:01;9.68;;;5.80;;
28266;SDS011;15525;45.568;5.448;2022-11-20T09:03:26;11.52;;;5.32;;
28266;SDS011;15525;45.568;5.448;2022-11-20T09:05:59;9.45;;;5.43;;
28266;SDS011;15525;45.568;5.448;2022-11-20T09:08:25;9.53;;;5.00;;
28266;SDS011;15525;45.568;5.448;2022-11-20T09:10:51;8.45;;;5.50;;
28266;SDS011;15525;45.568;5.448;2022-11-20T09:13:17;13.48;;;5.38;;
28266;SDS011;15525;45.568;5.448;2022-11-20T09:15:43;8.70;;;5.20;;
28266;SDS011;15525;45.568;5.448;2022-11-20T09:18:08;8.70;;;5.25;;
28266;SDS011;15525;45.568;5.448;2022-11-20T09:20:34;9.05;;;5.18;;
28266;SDS011;15525;45.568;5.448;2022-11-20T09:23:00;7.80;;;4.95;;
28266;SDS011;15525;45.568;5.448;2022-11-20T09:25:25;7.13;;;4.88;;
28266;SDS011;15525;45.568;5.448;2022-11-20T09:27:57;9.10;;;5.63;;
28266;SDS011;15525;45.568;5.448;2022-11-20T09:30:24;9.77;;;5.30;;
28266;SDS011;15525;45.568;5.448;2022-11-20T09:32:49;9.35;;;5.28;;
28266;SDS011;15525;45.568;5.448;2022-11-20T09:35:15;9.10;;;5.38;;
28266;SDS011;15525;45.568;5.448;2022-11-20T09:37:42;12.05;;;5.60;;
28266;SDS011;15525;45.568;5.448;2022-11-20T09:40:13;8.55;;;4.97;;
28266;SDS011;15525;45.568;5.448;2022-11-20T09:42:47;8.45;;;5.30;;
28266;SDS011;15525;45.568;5.448;2022-11-20T09:45:30;9.48;;;5.25;;
28266;SDS011;15525;45.568;5.448;2022-11-20T09:56:21;9.20;;;5.70;;
28266;SDS011;15525;45.568;5.448;2022-11-20T09:58:51;10.68;;;5.93;;
28266;SDS011;15525;45.568;5.448;2022-11-20T10:01:23;9.00;;;5.50;;
28266;SDS011;15525;45.568;5.448;2022-11-20T10:03:58;8.15;;;5.38;;
28266;SDS011;15525;45.568;5.448;2022-11-20T10:06:28;11.68;;;6.22;;
28266;SDS011;15525;45.568;5.448;2022-11-20T10:09:01;9.10;;;6.00;;
28266;SDS011;15525;45.568;5.448;2022-11-20T10:11:43;10.82;;;5.72;;
28266;SDS011;15525;45.568;5.448;2022-11-20T10:17:19;9.98;;;5.38;;
28266;SDS011;15525;45.568;5.448;2022-11-20T10:20:24;10.88;;;5.57;;
28266;SDS011;15525;45.568;5.448;2022-11-20T10:23:04;10.80;;;6.22;;
28266;SDS011;15525;45.568;5.448;2022-11-20T10:25:38;9.27;;;5.72;;
28266;SDS011;15525;45.568;5.448;2022-11-20T10:28:13;9.52;;;5.75;;
28266;SDS011;15525;45.568;5.448;2022-11-20T10:30:46;11.00;;;6.00;;
28266;SDS011;15525;45.568;5.448;2022-11-20T10:33:22;9.13;;;5.40;;
28266;SDS011;15525;45.568;5.448;2022-11-20T10:38:38;9.75;;;6.22;;
28266;SDS011;15525;45.568;5.448;2022-11-20T10:41:14;10.82;;;6.35;;
28266;SDS011;15525;45.568;5.448;2022-11-20T10:44:00;12.27;;;5.95;;
28266;SDS011;15525;45.568;5.448;2022-11-20T10:47:15;9.48;;;5.40;;
28266;SDS011;15525;45.568;5.448;2022-11-20T10:49:46;7.97;;;4.70;;
28266;SDS011;15525;45.568;5.448;2022-11-20T10:55:13;9.20;;;5.28;;
28266;SDS011;15525;45.568;5.448;2022-11-20T11:00:30;11.23;;;5.07;;
28266;SDS011;15525;45.568;5.448;2022-11-20T11:02:56;8.93;;;4.38;;
28266;SDS011;15525;45.568;5.448;2022-11-20T11:05:40;6.68;;;4.20;;
28266;SDS011;15525;45.568;5.448;2022-11-20T11:13:20;7.20;;;4.25;;
28266;SDS011;15525;45.568;5.448;2022-11-20T11:15:50;7.07;;;4.38;;
28266;SDS011;15525;45.568;5.448;2022-11-20T11:18:50;7.60;;;3.92;;
28266;SDS011;15525;45.568;5.448;2022-11-20T11:21:08;5.93;;;4.13;;
28266;SDS011;15525;45.568;5.448;2022-11-20T11:23:35;5.82;;;4.18;;
28266;SDS011;15525;45.568;5.448;2022-11-20T11:26:02;7.10;;;4.43;;
28266;SDS011;15525;45.568;5.448;2022-11-20T11:28:30;5.85;;;4.32;;
28266;SDS011;15525;45.568;5.448;2022-11-20T11:30:56;6.53;;;4.20;;
28266;SDS011;15525;45.568;5.448;2022-11-20T11:33:22;7.45;;;3.78;;
28266;SDS011;15525;45.568;5.448;2022-11-20T11:35:52;5.28;;;3.60;;
28266;SDS011;15525;45.568;5.448;2022-11-20T11:38:43;5.53;;;3.50;;
28266;SDS011;15525;45.568;5.448;2022-11-20T11:41:22;6.78;;;3.20;;
28266;SDS011;15525;45.568;5.448;2022-11-20T11:43:57;5.10;;;3.20;;
28266;SDS011;15525;45.568;5.448;2022-11-20T11:46:44;4.88;;;3.10;;
28266;SDS011;15525;45.568;5.448;2022-11-20T11:49:17;6.28;;;3.53;;
28266;SDS011;15525;45.568;5.448;2022-11-20T12:07:49;7.93;;;4.95;;
28266;SDS011;15525;45.568;5.448;2022-11-20T12:15:55;9.15;;;5.35;;
28266;SDS011;15525;45.568;5.448;2022-11-20T12:18:21;9.13;;;5.30;;
28266;SDS011;15525;45.568;5.448;2022-11-20T12:20:52;8.52;;;5.70;;
28266;SDS011;15525;45.568;5.448;2022-11-20T12:32:01;7.22;;;4.10;;
28266;SDS011;15525;45.568;5.448;2022-11-20T12:37:51;6.72;;;3.55;;
28266;SDS011;15525;45.568;5.448;2022-11-20T12:44:09;5.47;;;3.70;;
28266;SDS011;15525;45.568;5.448;2022-11-20T12:47:13;7.18;;;4.53;;
28266;SDS011;15525;45.568;5.448;2022-11-20T12:52:48;9.27;;;4.85;;
28266;SDS011;15525;45.568;5.448;2022-11-20T12:58:30;5.63;;;3.30;;
28266;SDS011;15525;45.568;5.448;2022-11-20T13:04:15;8.70;;;4.68;;
28266;SDS011;15525;45.568;5.448;2022-11-20T13:06:44;7.70;;;4.70;;
28266;SDS011;15525;45.568;5.448;2022-11-20T13:09:11;9.20;;;4.88;;
28266;SDS011;15525;45.568;5.448;2022-11-20T13:14:50;5.05;;;2.97;;
28266;SDS011;15525;45.568;5.448;2022-11-20T13:22:50;4.78;;;3.20;;
28266;SDS011;15525;45.568;5.448;2022-11-20T13:27:49;6.80;;;3.63;;
28266;SDS011;15525;45.568;5.448;2022-11-20T13:30:16;8.32;;;3.30;;
28266;SDS011;15525;45.568;5.448;2022-11-20T13:32:47;4.28;;;3.10;;
28266;SDS011;15525;45.568;5.448;2022-11-20T13:35:27;4.38;;;2.97;;
28266;SDS011;15525;45.568;5.448;2022-11-20T13:38:02;4.85;;;2.90;;
28266;SDS011;15525;45.568;5.448;2022-11-20T13:40:36;3.53;;;3.00;;
28266;SDS011;15525;45.568;5.448;2022-11-20T13:46:06;6.90;;;3.10;;
28266;SDS011;15525;45.568;5.448;2022-11-20T13:48:33;6.47;;;2.70;;
28266;SDS011;15525;45.568;5.448;2022-11-20T14:00:03;5.20;;;2.40;;
28266;SDS011;15525;45.568;5.448;2022-11-20T14:03:01;3.88;;;2.88;;
28266;SDS011;15525;45.568;5.448;2022-11-20T14:05:38;6.32;;;2.70;;
28266;SDS011;15525;45.568;5.448;2022-11-20T14:08:06;5.28;;;2.67;;
28266;SDS011;15525;45.568;5.448;2022-11-20T14:10:38;5.40;;;2.70;;
28266;SDS011;15525;45.568;5.448;2022-11-20T14:13:15;3.67;;;2.70;;
28266;SDS011;15525;45.568;5.448;2022-11-20T14:15:43;4.20;;;2.50;;
28266;SDS011;15525;45.568;5.448;2022-11-20T14:18:14;4.93;;;2.90;;
28266;SDS011;15525;45.568;5.448;2022-11-20T14:20:44;4.03;;;2.53;;
28266;SDS011;15525;45.568;5.448;2022-11-20T14:23:10;4.22;;;2.45;;
28266;SDS011;15525;45.568;5.448;2022-11-20T14:25:36;5.22;;;2.90;;
28266;SDS011;15525;45.568;5.448;2022-11-20T14:28:02;5.18;;;2.65;;
28266;SDS011;15525;45.568;5.448;2022-11-20T14:33:01;3.42;;;2.50;;
28266;SDS011;15525;45.568;5.448;2022-11-20T14:35:29;4.05;;;2.70;;
28266;SDS011;15525;45.568;5.448;2022-11-20T14:37:56;3.85;;;2.70;;
28266;SDS011;15525;45.568;5.448;2022-11-20T14:42:53;5.72;;;2.80;;
28266;SDS011;15525;45.568;5.448;2022-11-20T14:45:18;4.25;;;2.95;;
28266;SDS011;15525;45.568;5.448;2022-11-20T14:47:45;4.75;;;2.70;;
28266;SDS011;15525;45.568;5.448;2022-11-20T14:50:16;4.63;;;2.70;;
28266;SDS011;15525;45.568;5.448;2022-11-20T14:52:53;6.00;;;2.65;;
28266;SDS011;15525;45.568;5.448;2022-11-20T14:55:33;3.72;;;2.33;;
28266;SDS011;15525;45.568;5.448;2022-11-20T14:58:03;3.60;;;2.55;;
28266;SDS011;15525;45.568;5.448;2022-11-20T15:00:31;4.72;;;2.80;;
28266;SDS011;15525;45.568;5.448;2022-11-20T15:02:58;5.18;;;2.60;;
28266;SDS011;15525;45.568;5.448;2022-11-20T15:05:24;6.32;;;2.90;;
28266;SDS011;15525;45.568;5.448;2022-11-20T15:08:08;3.10;;;2.20;;
28266;SDS011;15525;45.568;5.448;2022-11-20T15:10:35;3.60;;;2.30;;
28266;SDS011;15525;45.568;5.448;2022-11-20T15:13:04;3.55;;;2.70;;
28266;SDS011;15525;45.568;5.448;2022-11-20T15:15:42;4.93;;;2.73;;
28266;SDS011;15525;45.568;5.448;2022-11-20T15:18:12;4.20;;;2.88;;
28266;SDS011;15525;45.568;5.448;2022-11-20T15:20:39;3.30;;;2.45;;
28266;SDS011;15525;45.568;5.448;2022-11-20T15:23:10;5.10;;;2.95;;
28266;SDS011;15525;45.568;5.448;2022-11-20T15:25:37;4.22;;;2.65;;
28266;SDS011;15525;45.568;5.448;2022-11-20T15:28:04;4.90;;;2.47;;
28266;SDS011;15525;45.568;5.448;2022-11-20T15:30:38;14.63;;;6.35;;
28266;SDS011;15525;45.568;5.448;2022-11-20T15:33:03;8.30;;;4.25;;
28266;SDS011;15525;45.568;5.448;2022-11-20T15:35:29;9.40;;;5.32;;
28266;SDS011;15525;45.568;5.448;2022-11-20T15:37:55;9.18;;;4.72;;
28266;SDS011;15525;45.568;5.448;2022-11-20T15:40:20;6.88;;;4.07;;
28266;SDS011;15525;45.568;5.448;2022-11-20T15:42:45;5.53;;;3.88;;
28266;SDS011;15525;45.568;5.448;2022-11-20T15:45:28;35.85;;;13.13;;
28266;SDS011;15525;45.568;5.448;2022-11-20T15:48:05;26.73;;;12.02;;
28266;SDS011;15525;45.568;5.448;2022-11-20T15:50:38;18.13;;;9.07;;
28266;SDS011;15525;45.568;5.448;2022-11-20T15:53:14;7.40;;;4.45;;
28266;SDS011;15525;45.568;5.448;2022-11-20T15:55:39;10.30;;;5.80;;
28266;SDS011;15525;45.568;5.448;2022-11-20T15:58:05;15.02;;;7.70;;
28266;SDS011;15525;45.568;5.448;2022-11-20T16:00:30;17.25;;;8.55;;
28266;SDS011;15525;45.568;5.448;2022-11-20T16:02:56;13.65;;;7.65;;
28266;SDS011;15525;45.568;5.448;2022-11-20T16:05:21;10.85;;;5.90;;
28266;SDS011;15525;45.568;5.448;2022-11-20T16:07:48;10.13;;;5.25;;
28266;SDS011;15525;45.568;5.448;2022-11-20T16:10:14;11.10;;;5.10;;
28266;SDS011;15525;45.568;5.448;2022-11-20T16:12:40;11.35;;;5.70;;
28266;SDS011;15525;45.568;5.448;2022-11-20T16:15:41;11.60;;;6.32;;
28266;SDS011;15525;45.568;5.448;2022-11-20T16:18:15;14.20;;;8.48;;
28266;SDS011;15525;45.568;5.448;2022-11-20T16:20:43;21.00;;;10.23;;
28266;SDS011;15525;45.568;5.448;2022-11-20T16:23:09;23.67;;;10.75;;
28266;SDS011;15525;45.568;5.448;2022-11-20T16:25:35;20.88;;;10.85;;
28266;SDS011;15525;45.568;5.448;2022-11-20T16:28:00;18.25;;;10.77;;
28266;SDS011;15525;45.568;5.448;2022-11-20T16:30:25;21.23;;;10.50;;